METAR Data
IDs: Format: Raw Decoded Include TAF

Data at: 1341 UTC 14 Dec 2019

KXNA 141324Z 01011KT 6SM BR OVC009 02/01 A2985 RMK AO2 T00170006
KXNA 141310Z 34005KT 8SM BKN010 01/00 A2985 RMK AO2 T00110000
KXNA 141253Z 32005KT 8SM CLR 01/M01 A2985 RMK AO2 SLP112 T00111006
KXNA 141153Z 34003KT 10SM CLR 02/00 A2984 RMK AO2 SLP108 T00220000 10067 20022 53017
KXNA 141053Z AUTO 32007KT 10SM CLR 03/01 A2981 RMK AO2 SLP096 T00330011
KXNA 140953Z AUTO 31010KT 10SM CLR 06/02 A2979 RMK AO2 SLP086 T00560022
KXNA 140853Z AUTO 27008KT 10SM CLR 06/03 A2979 RMK AO2 SLP086 T00560033 53001
KXNA 140753Z AUTO 25007KT 10SM FEW065 SCT100 BKN120 06/03 A2978 RMK AO2 SLP081 T00610033
KXNA 140653Z AUTO 24006KT 10SM BKN100 06/03 A2979 RMK AO2 SLP086 T00610033
KXNA 140553Z AUTO 20005KT 10SM SCT110 03/02 A2979 RMK AO2 SLP086 T00330017 10072 20028 401280028 58020
KXNA 140453Z AUTO 21005KT 10SM CLR 04/02 A2981 RMK AO2 SLP096 T00440017
KXNA 140353Z 19006KT 10SM CLR 04/02 A2983 RMK AO2 SLP103 T00390017
KXNA 140253Z 29006KT 10SM CLR 06/02 A2985 RMK AO2 SLP109 T00560022 51008
KXNA 140153Z 23005KT 10SM CLR 06/02 A2984 RMK AO2 SLP108 T00610017
KXNA 140053Z 25003KT 10SM CLR 06/02 A2983 RMK AO2 SLP104 T00610017
KXNA 132353Z 00000KT 10SM CLR 06/02 A2982 RMK AO2 SLP101 T00610017 10128 20061 53000
KXNA 132253Z 24003KT 10SM CLR 09/02 A2982 RMK AO2 SLP097 T00940022
KXNA 132153Z 25004KT 10SM CLR 12/02 A2981 RMK AO2 SLP094 T01220022
KXNA 132053Z 26004KT 10SM CLR 13/02 A2982 RMK AO2 SLP096 T01280022 56018
KXNA 131953Z 00000KT 10SM CLR 12/02 A2983 RMK AO2 SLP099 T01220017
KXNA 131853Z 22004KT 10SM CLR 11/02 A2985 RMK AO2 SLP107 T01110017
KXNA 131753Z 17006KT 10SM CLR 11/02 A2987 RMK AO2 SLP116 T01060017 10106 20033 58022
KXNA 131553Z 18005KT 10SM FEW045 07/M01 A2994 RMK AO2 SLP142 T00721006
KXNA 131453Z 13003KT 10SM CLR 06/M01 A2994 RMK AO2 SLP141 T00561006 58001
KXNA 131353Z 00000KT 10SM BKN046 04/M02 A2995 RMK AO2 SLP143 T00391017
KXNA 131253Z 15004KT 10SM CLR 04/M02 A2994 RMK AO2 SLP144 T00391017
KXNA 131153Z 00000KT 10SM OVC044 04/M01 A2994 RMK AO2 SLP142 T00441011 10056 20039 56012
KXNA 131053Z AUTO 16003KT 10SM OVC045 04/M02 A2995 RMK AO2 SLP145 T00441022
KXNA 130953Z AUTO 00000KT 10SM SCT045 BKN110 04/M02 A2997 RMK AO2 SLP149 T00391017
KXNA 130853Z AUTO 19003KT 10SM CLR 04/M02 A2998 RMK AO2 SLP152 T00441022 56021
KXNA 130753Z AUTO 20003KT 10SM FEW120 05/M03 A3000 RMK AO2 SLP159 T00501028
KXNA 130653Z AUTO 21005KT 10SM SCT047 06/M03 A3001 RMK AO2 SLP163 T00561028
KXNA 130553Z AUTO 21006KT 10SM OVC041 06/M03 A3005 RMK AO2 SLP174 T00561028 10067 20033 401220022 58008
KXNA 130453Z AUTO 20006KT 10SM BKN045 OVC055 06/M03 A3007 RMK AO2 SLP183 T00561033
KXNA 130353Z 21005KT 10SM CLR 05/M04 A3007 RMK AO2 SLP185 T00501039
KXNA 130253Z 19006KT 10SM OVC060 06/M04 A3007 RMK AO2 SLP185 T00561044 56005
KXNA 130153Z 19006KT 10SM FEW065 06/M04 A3007 RMK AO2 SLP188 T00561044